Time;durP1;ratioP1;P1;durP2;ratioP2;P2;SDS_P1;SDS_P2;PMS_P1;PMS_P2;Temp;Humidity;BMP_temperature;BMP_pressure;BME280_temperature;BME280_humidity;BME280_pressure;Samples;Min_cycle;Max_cycle;Signal;HPM_P1;HPM_P2
2021/06/09 00:00:19;;;;;;;7.32;3.80;;;13.90;98.40;;;;;;4923544;29;20027;-89
2021/06/09 00:02:45;;;;;;;5.95;4.28;;;13.90;98.80;;;;;;4923361;29;20079;-91
2021/06/09 00:05:11;;;;;;;6.72;3.75;;;13.90;99.00;;;;;;4923771;29;20032;-91
2021/06/09 00:07:37;;;;;;;5.40;3.65;;;13.90;99.30;;;;;;4940472;29;20038;-90
2021/06/09 00:10:04;;;;;;;5.82;3.63;;;13.90;99.60;;;;;;4923398;29;20051;-90
2021/06/09 00:12:31;;;;;;;3.92;2.92;;;13.90;99.80;;;;;;4922671;29;20126;-90
2021/06/09 00:14:57;;;;;;;5.63;3.70;;;13.90;99.90;;;;;;4922290;29;20863;-90
2021/06/09 00:17:23;;;;;;;5.45;3.67;;;13.90;99.90;;;;;;4922348;29;20122;-91
2021/06/09 00:19:48;;;;;;;9.88;3.78;;;13.80;99.90;;;;;;4939881;29;20473;-90
2021/06/09 00:22:14;;;;;;;4.88;3.63;;;13.90;99.90;;;;;;4926924;29;20024;-90
2021/06/09 00:24:40;;;;;;;5.47;3.45;;;13.80;99.90;;;;;;4943863;29;20050;-91
2021/06/09 00:27:06;;;;;;;4.80;3.85;;;13.80;99.90;;;;;;4927293;29;20047;-91
2021/06/09 00:29:31;;;;;;;7.05;4.10;;;13.80;99.90;;;;;;4929037;29;20477;-92
2021/06/09 00:31:57;;;;;;;4.10;3.60;;;13.80;99.90;;;;;;4946444;29;20031;-91
2021/06/09 00:34:23;;;;;;;6.10;3.90;;;13.70;99.90;;;;;;4929321;29;20035;-92
2021/06/09 00:36:48;;;;;;;7.15;4.03;;;13.60;99.90;;;;;;4929420;29;20042;-91
2021/06/09 00:39:14;;;;;;;4.32;3.67;;;13.60;99.90;;;;;;4929412;29;20121;-91
2021/06/09 00:41:40;;;;;;;8.02;3.78;;;13.60;99.90;;;;;;4928912;29;20039;-91
2021/06/09 00:44:07;;;;;;;5.45;3.78;;;13.50;99.90;;;;;;4928493;29;20497;-91
2021/06/09 00:46:36;;;;;;;5.85;3.72;;;13.50;99.90;;;;;;4926970;29;20107;-91
2021/06/09 00:49:02;;;;;;;4.82;3.90;;;13.50;99.90;;;;;;4926861;29;20445;-92
2021/06/09 00:51:28;;;;;;;5.57;3.78;;;13.40;99.90;;;;;;4927296;29;20079;-92
2021/06/09 00:53:57;;;;;;;7.68;4.18;;;13.40;99.90;;;;;;4926395;29;20024;-91
2021/06/09 00:56:24;;;;;;;4.45;3.70;;;13.30;99.90;;;;;;4925428;29;20503;-91
2021/06/09 00:58:51;;;;;;;5.85;3.40;;;13.30;99.90;;;;;;4925916;29;20063;-91
2021/06/09 01:01:20;;;;;;;5.00;4.15;;;13.30;99.90;;;;;;4926374;29;20027;-91
2021/06/09 01:03:47;;;;;;;9.55;4.13;;;13.30;99.90;;;;;;4926319;29;20095;-92
2021/06/09 01:06:13;;;;;;;7.03;4.18;;;13.20;99.90;;;;;;4926108;29;20074;-92
2021/06/09 01:08:41;;;;;;;6.75;3.92;;;13.20;99.90;;;;;;4926164;29;20027;-91
2021/06/09 01:11:13;;;;;;;11.45;4.45;;;13.10;99.90;;;;;;4925529;29;20032;-91
2021/06/09 01:13:39;;;;;;;8.55;3.92;;;13.10;99.90;;;;;;4942792;29;20039;-92
2021/06/09 01:16:07;;;;;;;5.75;3.75;;;13.10;99.90;;;;;;4926927;29;20586;-91
2021/06/09 01:18:34;;;;;;;5.22;3.85;;;13.10;99.90;;;;;;4930602;29;20035;-92
2021/06/09 01:21:01;;;;;;;7.13;3.92;;;13.10;99.90;;;;;;4929252;29;20024;-91
2021/06/09 01:23:28;;;;;;;7.43;4.25;;;13.10;99.90;;;;;;4948627;29;20092;-91
2021/06/09 01:25:54;;;;;;;6.05;4.65;;;13.00;99.90;;;;;;4932838;29;20043;-92
2021/06/09 01:28:21;;;;;;;8.27;4.35;;;13.00;99.90;;;;;;4931684;29;20031;-92
2021/06/09 01:30:48;;;;;;;4.65;3.80;;;12.90;99.90;;;;;;4929303;29;20111;-91
2021/06/09 01:33:18;;;;;;;7.68;4.50;;;12.90;99.90;;;;;;4927728;29;20023;-91
2021/06/09 01:35:44;;;;;;;6.50;4.40;;;12.90;99.90;;;;;;4926915;29;20027;-91
2021/06/09 01:38:11;;;;;;;10.57;4.47;;;12.80;99.90;;;;;;4925636;29;20040;-91
2021/06/09 01:40:37;;;;;;;6.57;4.00;;;12.60;99.90;;;;;;4925126;29;20062;-91
2021/06/09 01:43:05;;;;;;;7.55;4.55;;;12.50;99.90;;;;;;4924358;29;20032;-91
2021/06/09 01:45:33;;;;;;;6.30;3.90;;;12.40;99.90;;;;;;4923596;29;20072;-92
2021/06/09 01:48:00;;;;;;;7.05;4.38;;;12.30;99.90;;;;;;4923646;29;20031;-91
2021/06/09 01:50:26;;;;;;;8.45;4.43;;;12.30;99.90;;;;;;4940545;29;20040;-90
2021/06/09 01:52:54;;;;;;;6.47;4.20;;;12.20;99.90;;;;;;4923720;29;20023;-91
2021/06/09 01:55:22;;;;;;;8.27;4.78;;;12.10;99.90;;;;;;4923615;29;20020;-91
2021/06/09 01:57:49;;;;;;;6.00;4.97;;;12.10;99.90;;;;;;4923454;29;20175;-91
2021/06/09 02:00:24;;;;;;;8.10;4.55;;;12.10;99.90;;;;;;4923321;29;20035;-91
2021/06/09 02:02:53;;;;;;;8.07;4.25;;;12.10;99.90;;;;;;4923411;29;20032;-91
2021/06/09 02:05:19;;;;;;;6.75;4.32;;;12.10;99.90;;;;;;4922975;29;20040;-90
2021/06/09 02:07:45;;;;;;;7.07;4.80;;;12.10;99.90;;;;;;4922872;29;20449;-91
2021/06/09 02:10:17;;;;;;;7.53;4.50;;;12.10;99.90;;;;;;4922589;29;20024;-90
2021/06/09 02:12:50;;;;;;;5.72;4.20;;;12.10;99.90;;;;;;4938942;29;20473;-91
2021/06/09 02:15:18;;;;;;;5.38;4.07;;;12.10;99.90;;;;;;4922479;29;20520;-90
2021/06/09 02:18:07;;;;;;;5.75;4.20;;;12.10;99.90;;;;;;4922070;29;20036;-91
2021/06/09 02:20:33;;;;;;;7.03;5.07;;;12.10;99.90;;;;;;4939052;29;20028;-90
2021/06/09 02:23:00;;;;;;;8.18;5.22;;;11.90;99.90;;;;;;4921925;29;20458;-90
2021/06/09 02:25:28;;;;;;;10.38;5.30;;;11.80;99.90;;;;;;4922110;29;20068;-91
2021/06/09 02:27:54;;;;;;;11.93;5.72;;;11.70;99.90;;;;;;4921715;29;20031;-91
2021/06/09 02:30:21;;;;;;;10.48;5.55;;;11.70;99.90;;;;;;4921202;29;20382;-90
2021/06/09 02:32:47;;;;;;;8.23;5.25;;;11.70;99.90;;;;;;4921714;29;20028;-91
2021/06/09 02:35:19;;;;;;;6.60;4.80;;;11.70;99.90;;;;;;4921794;29;20481;-90
2021/06/09 02:37:50;;;;;;;6.93;4.60;;;11.70;99.90;;;;;;4921434;29;20024;-91
2021/06/09 02:40:22;;;;;;;11.15;5.82;;;11.70;99.90;;;;;;4921534;29;20498;-90
2021/06/09 02:42:48;;;;;;;7.88;5.00;;;11.70;99.90;;;;;;4921222;29;20032;-90
2021/06/09 02:45:19;;;;;;;11.60;5.32;;;11.70;99.90;;;;;;4937993;29;20039;-91
2021/06/09 02:47:49;;;;;;;6.68;4.80;;;11.80;99.90;;;;;;4921131;29;20502;-90
2021/06/09 02:50:18;;;;;;;8.27;5.47;;;11.80;99.90;;;;;;4921213;29;20039;-91
2021/06/09 02:52:50;;;;;;;7.72;4.93;;;11.80;99.90;;;;;;4921103;29;20083;-90
2021/06/09 02:55:32;;;;;;;9.18;5.45;;;11.80;99.90;;;;;;4921034;29;20039;-92
2021/06/09 02:58:34;;;;;;;6.35;4.85;;;11.80;99.90;;;;;;4937848;29;20030;-90
2021/06/09 03:01:11;;;;;;;8.10;5.15;;;11.70;99.90;;;;;;4904458;29;20058;-90
2021/06/09 03:03:49;;;;;;;9.18;5.20;;;11.70;99.90;;;;;;4920699;29;20142;-90
2021/06/09 03:06:22;;;;;;;6.88;5.28;;;11.60;99.90;;;;;;4920742;29;20043;-91
2021/06/09 03:09:25;;;;;;;9.18;5.13;;;11.60;99.90;;;;;;4920595;29;20430;-90
2021/06/09 03:11:59;;;;;;;8.85;4.88;;;11.60;99.90;;;;;;4903481;29;20131;-91
2021/06/09 03:17:32;;;;;;;7.85;4.68;;;11.50;99.90;;;;;;4937539;29;20059;-90
2021/06/09 03:20:34;;;;;;;9.10;5.18;;;11.50;99.90;;;;;;4920369;29;20067;-91
2021/06/09 03:23:16;;;;;;;8.10;5.38;;;11.40;99.90;;;;;;4937257;29;20031;-91
2021/06/09 03:25:53;;;;;;;8.05;4.60;;;11.40;99.90;;;;;;4937234;29;20039;-91
2021/06/09 03:28:37;;;;;;;8.82;4.85;;;11.30;99.90;;;;;;4920306;29;20056;-90
2021/06/09 03:31:06;;;;;;;5.78;4.65;;;11.30;99.90;;;;;;4937202;29;20031;-91
2021/06/09 03:33:43;;;;;;;6.65;4.68;;;11.30;99.90;;;;;;4921224;29;20032;-91
2021/06/09 03:36:21;;;;;;;6.93;5.10;;;11.20;99.90;;;;;;4946287;29;20066;-91
2021/06/09 03:39:02;;;;;;;7.82;4.68;;;11.20;99.90;;;;;;4928887;29;20028;-92
2021/06/09 03:42:01;;;;;;;6.95;4.97;;;11.10;99.90;;;;;;4928437;29;20378;-91
2021/06/09 03:44:40;;;;;;;7.43;4.95;;;11.10;99.90;;;;;;4943438;29;20040;-91
2021/06/09 03:47:08;;;;;;;8.70;5.25;;;11.20;99.90;;;;;;4944917;29;20039;-91
2021/06/09 03:49:35;;;;;;;7.65;4.70;;;11.20;99.90;;;;;;4923684;29;20087;-91
2021/06/09 03:52:00;;;;;;;7.82;4.95;;;11.30;99.90;;;;;;4919771;29;20070;-91
2021/06/09 03:54:30;;;;;;;8.60;5.38;;;11.30;99.90;;;;;;4936062;29;20063;-91
2021/06/09 03:57:02;;;;;;;9.85;5.63;;;11.30;99.90;;;;;;4919577;29;20027;-90
2021/06/09 03:59:31;;;;;;;8.25;5.00;;;11.30;99.90;;;;;;4919863;29;20486;-88
2021/06/09 04:02:00;;;;;;;9.30;5.32;;;11.30;99.90;;;;;;4919676;29;20434;-90
2021/06/09 04:04:28;;;;;;;10.07;4.90;;;11.40;99.90;;;;;;4919603;29;20123;-89
2021/06/09 04:06:57;;;;;;;5.93;4.47;;;11.40;99.90;;;;;;4919672;29;20028;-90
2021/06/09 04:09:25;;;;;;;8.45;5.28;;;11.40;99.90;;;;;;4903917;29;20036;-91
2021/06/09 04:11:57;;;;;;;8.38;4.72;;;11.30;99.90;;;;;;4936500;29;20032;-92
2021/06/09 04:14:31;;;;;;;6.95;5.40;;;11.30;99.90;;;;;;4936444;29;20032;-90
2021/06/09 04:17:01;;;;;;;9.98;6.07;;;11.30;99.90;;;;;;4936413;29;20028;-92
2021/06/09 04:19:28;;;;;;;12.20;5.40;;;11.30;99.90;;;;;;4939359;29;20039;-91
2021/06/09 04:21:54;;;;;;;18.40;6.18;;;11.20;99.90;;;;;;4944440;29;20035;-91
2021/06/09 04:24:20;;;;;;;11.95;6.25;;;11.10;99.90;;;;;;4944096;29;20040;-91
2021/06/09 04:26:48;;;;;;;8.90;5.65;;;11.10;99.90;;;;;;4944529;29;20496;-93
2021/06/09 04:29:15;;;;;;;8.88;5.60;;;11.10;99.90;;;;;;4928310;29;20024;-91
2021/06/09 04:31:46;;;;;;;9.07;5.57;;;11.10;99.90;;;;;;4945537;29;20079;-92
2021/06/09 04:34:13;;;;;;;9.43;5.55;;;11.10;99.90;;;;;;4951150;29;20028;-90
2021/06/09 04:36:40;;;;;;;10.30;5.90;;;11.10;99.90;;;;;;4921964;29;20038;-91
2021/06/09 04:39:09;;;;;;;11.65;5.75;;;11.10;99.90;;;;;;4938103;29;20024;-91
2021/06/09 04:41:34;;;;;;;7.35;5.28;;;11.10;99.90;;;;;;4921354;29;20138;-90
2021/06/09 04:44:00;;;;;;;8.63;5.40;;;11.10;99.90;;;;;;4905429;29;20075;-92
2021/06/09 04:46:27;;;;;;;9.05;5.50;;;11.00;99.90;;;;;;4937122;29;20079;-91
2021/06/09 04:49:04;;;;;;;10.02;6.00;;;11.00;99.90;;;;;;4920698;29;20110;-91
2021/06/09 04:51:36;;;;;;;9.60;5.57;;;11.00;99.90;;;;;;4937250;29;20032;-91
2021/06/09 04:54:04;;;;;;;6.45;5.28;;;11.00;99.90;;;;;;4936785;29;20083;-91
2021/06/09 04:56:44;;;;;;;11.60;5.53;;;11.00;99.90;;;;;;4918961;29;20485;-92
2021/06/09 04:59:10;;;;;;;6.75;5.43;;;11.10;99.90;;;;;;4920263;29;20079;-91
2021/06/09 05:01:39;;;;;;;9.82;5.50;;;11.10;99.90;;;;;;4920096;29;20561;-92
2021/06/09 05:04:05;;;;;;;8.00;5.35;;;11.00;99.90;;;;;;4920230;29;20031;-91
2021/06/09 05:06:31;;;;;;;9.32;5.38;;;11.10;99.90;;;;;;4936922;29;20048;-91
2021/06/09 05:08:57;;;;;;;7.32;5.57;;;11.10;99.90;;;;;;4940744;29;20028;-91
2021/06/09 05:11:36;;;;;;;11.45;5.70;;;11.10;99.90;;;;;;4940226;29;20031;-92
2021/06/09 05:14:06;;;;;;;9.77;6.10;;;11.00;99.90;;;;;;4940668;29;20500;-92
2021/06/09 05:16:36;;;;;;;10.02;6.57;;;11.00;99.90;;;;;;4924138;29;20028;-92
2021/06/09 05:19:03;;;;;;;9.77;5.70;;;11.00;99.90;;;;;;4923821;29;20422;-90
2021/06/09 05:21:33;;;;;;;8.55;6.20;;;11.00;99.90;;;;;;4939638;29;20474;-91
2021/06/09 05:24:01;;;;;;;9.63;5.95;;;11.10;99.90;;;;;;4939540;29;20027;-92
2021/06/09 05:26:29;;;;;;;10.65;6.03;;;11.10;99.90;;;;;;4922951;29;20087;-91
2021/06/09 05:28:59;;;;;;;9.82;6.22;;;11.10;99.90;;;;;;4922114;29;20509;-92
2021/06/09 05:31:26;;;;;;;11.57;5.80;;;11.10;99.90;;;;;;4923140;29;20028;-92
2021/06/09 05:33:54;;;;;;;8.10;5.80;;;11.20;99.90;;;;;;4940153;29;20036;-91
2021/06/09 05:36:22;;;;;;;13.45;6.22;;;11.20;99.90;;;;;;4940598;29;20036;-91
2021/06/09 05:38:52;;;;;;;10.35;6.38;;;11.30;99.90;;;;;;4940485;29;20107;-91
2021/06/09 05:41:19;;;;;;;13.52;6.13;;;11.30;99.90;;;;;;4934172;29;20046;-91
2021/06/09 05:43:46;;;;;;;9.85;5.93;;;11.40;99.90;;;;;;4932718;29;20101;-91
2021/06/09 05:46:12;;;;;;;10.98;6.00;;;11.50;99.90;;;;;;4914536;29;20055;-91
2021/06/09 05:48:43;;;;;;;9.70;6.10;;;11.60;99.90;;;;;;4928666;29;20024;-91
2021/06/09 05:51:12;;;;;;;8.95;6.10;;;11.60;99.90;;;;;;4933481;29;20028;-91
2021/06/09 05:53:41;;;;;;;13.57;5.95;;;11.70;99.90;;;;;;4907049;29;20033;-91
2021/06/09 05:56:08;;;;;;;15.60;6.22;;;11.80;99.90;;;;;;4927742;29;20066;-91
2021/06/09 05:58:34;;;;;;;11.43;6.53;;;11.80;99.90;;;;;;4921692;29;20028;-90
2021/06/09 06:01:05;;;;;;;11.25;6.43;;;11.90;99.90;;;;;;4913277;29;20056;-92
2021/06/09 06:03:31;;;;;;;11.20;6.57;;;12.00;99.90;;;;;;4918543;29;20494;-91
2021/06/09 06:06:11;;;;;;;8.20;6.13;;;12.00;99.90;;;;;;4883974;29;20116;-90
2021/06/09 06:08:41;;;;;;;13.50;6.20;;;12.10;99.90;;;;;;4909453;29;20028;-90
2021/06/09 06:11:11;;;;;;;9.23;6.03;;;12.20;99.90;;;;;;4900709;29;20040;-89
2021/06/09 06:13:38;;;;;;;12.57;7.23;;;12.20;99.90;;;;;;4898681;29;20055;-90
2021/06/09 06:16:05;;;;;;;13.98;6.68;;;12.30;99.90;;;;;;4897824;29;20038;-90
2021/06/09 06:18:30;;;;;;;9.43;6.40;;;12.40;99.90;;;;;;4916623;29;20111;-92
2021/06/09 06:20:56;;;;;;;10.88;5.95;;;12.50;99.90;;;;;;4910287;29;20059;-94
2021/06/09 06:23:25;;;;;;;9.52;6.05;;;12.60;99.90;;;;;;4899145;29;20027;-89
2021/06/09 06:25:51;;;;;;;7.45;5.32;;;12.70;99.90;;;;;;4919448;29;20040;-89
2021/06/09 06:28:16;;;;;;;11.52;5.35;;;12.80;99.90;;;;;;4902679;29;20403;-90
2021/06/09 06:30:42;;;;;;;9.85;6.25;;;12.90;99.90;;;;;;4909675;29;20131;-91
2021/06/09 06:33:09;;;;;;;11.15;5.18;;;12.90;99.90;;;;;;4905061;29;20043;-91
2021/06/09 06:35:36;;;;;;;9.18;5.57;;;13.10;99.90;;;;;;4899223;29;20112;-91
2021/06/09 06:38:01;;;;;;;11.50;5.32;;;13.20;99.90;;;;;;4919046;29;20043;-89
2021/06/09 06:40:28;;;;;;;9.35;5.85;;;13.20;99.90;;;;;;4898784;29;20119;-91
2021/06/09 06:42:56;;;;;;;8.40;5.65;;;13.30;99.90;;;;;;4906071;29;20075;-91
2021/06/09 06:45:24;;;;;;;8.90;5.63;;;13.40;99.90;;;;;;4895152;29;20055;-90
2021/06/09 06:47:51;;;;;;;8.40;5.85;;;13.50;99.90;;;;;;4902599;29;20060;-90
2021/06/09 06:50:20;;;;;;;11.85;5.93;;;13.60;99.90;;;;;;4908171;29;20549;-89
2021/06/09 06:52:46;;;;;;;8.55;5.88;;;13.80;99.90;;;;;;4901677;29;20032;-91
2021/06/09 06:55:13;;;;;;;8.15;5.43;;;13.90;99.90;;;;;;4902138;29;20020;-89
2021/06/09 06:57:39;;;;;;;10.23;6.20;;;14.00;99.90;;;;;;4911860;29;20032;-90
2021/06/09 07:00:12;;;;;;;4.93;3.72;;;14.10;99.90;;;;;;4928607;29;20041;-91
2021/06/09 07:02:46;;;;;;;9.25;5.95;;;14.20;99.90;;;;;;4916865;29;20028;-91
2021/06/09 07:05:12;;;;;;;11.93;5.78;;;14.30;99.90;;;;;;4902473;29;20048;-90
2021/06/09 07:07:40;;;;;;;7.88;5.20;;;14.50;99.90;;;;;;4909952;29;20386;-92
2021/06/09 07:10:08;;;;;;;9.52;5.25;;;14.60;99.90;;;;;;4908985;29;20359;-91
2021/06/09 07:12:39;;;;;;;8.73;4.78;;;14.70;99.90;;;;;;4910739;29;20028;-91
2021/06/09 07:15:09;;;;;;;10.80;5.28;;;14.90;99.90;;;;;;4924942;29;20036;-91
2021/06/09 07:17:43;;;;;;;8.95;4.72;;;15.00;99.90;;;;;;4943205;29;20087;-92
2021/06/09 07:20:11;;;;;;;11.23;3.92;;;15.10;99.90;;;;;;4900133;29;20056;-92
2021/06/09 07:22:41;;;;;;;7.30;3.67;;;15.30;99.90;;;;;;4916585;29;20028;-90
2021/06/09 07:25:09;;;;;;;6.50;3.15;;;15.40;99.90;;;;;;4924708;29;20043;-92
2021/06/09 07:27:37;;;;;;;4.32;2.50;;;15.60;99.90;;;;;;4922979;29;20035;-91
2021/06/09 07:30:06;;;;;;;5.80;2.85;;;15.70;99.90;;;;;;4913831;29;20092;-91
2021/06/09 07:32:35;;;;;;;5.90;3.05;;;15.80;99.90;;;;;;4912988;29;20045;-91
2021/06/09 07:35:01;;;;;;;5.53;2.50;;;16.00;99.90;;;;;;4940416;29;20031;-89
2021/06/09 07:37:30;;;;;;;5.55;2.10;;;16.10;99.90;;;;;;4914206;29;20027;-90
2021/06/09 07:39:58;;;;;;;2.60;1.90;;;16.20;99.90;;;;;;4914877;29;20028;-92
2021/06/09 07:42:29;;;;;;;6.18;2.42;;;16.40;99.60;;;;;;4917510;29;20028;-90
2021/06/09 07:45:05;;;;;;;2.80;2.10;;;16.50;98.60;;;;;;4901513;29;20048;-93
2021/06/09 07:47:34;;;;;;;4.18;2.20;;;16.60;97.20;;;;;;4903809;29;20056;-92
2021/06/09 07:50:02;;;;;;;3.58;2.35;;;16.80;95.70;;;;;;4905813;29;20032;-94
2021/06/09 07:52:30;;;;;;;3.10;2.05;;;16.90;94.40;;;;;;4900714;29;20046;-92
2021/06/09 07:55:00;;;;;;;4.55;2.42;;;17.00;93.40;;;;;;4889280;29;20036;-89
2021/06/09 07:57:30;;;;;;;4.55;2.20;;;17.20;92.60;;;;;;4889185;29;20475;-90
2021/06/09 07:59:56;;;;;;;3.78;2.22;;;17.30;91.70;;;;;;4907189;29;20040;-90
2021/06/09 08:02:23;;;;;;;3.22;2.15;;;17.40;91.80;;;;;;4890498;29;20079;-91
2021/06/09 08:04:49;;;;;;;3.17;2.08;;;17.50;90.90;;;;;;4897472;29;20053;-92
2021/06/09 08:07:16;;;;;;;3.28;1.92;;;17.60;90.30;;;;;;4899146;29;20032;-91
2021/06/09 08:09:42;;;;;;;4.38;1.70;;;17.80;89.80;;;;;;4895923;29;20032;-91
2021/06/09 08:12:11;;;;;;;2.35;1.70;;;17.90;88.60;;;;;;4894456;29;20471;-89
2021/06/09 08:14:38;;;;;;;2.17;1.65;;;18.00;86.50;;;;;;4893080;29;20056;-90
2021/06/09 08:17:06;;;;;;;2.58;1.50;;;18.10;85.00;;;;;;4894899;29;20402;-92
2021/06/09 08:19:32;;;;;;;3.10;1.40;;;18.20;83.70;;;;;;4903637;29;20029;-90
2021/06/09 08:21:58;;;;;;;3.80;1.77;;;18.40;82.90;;;;;;4903476;29;20035;-91
2021/06/09 08:24:24;;;;;;;1.77;1.50;;;18.50;80.90;;;;;;4903219;29;20099;-90
2021/06/09 08:26:50;;;;;;;2.28;1.70;;;18.60;79.40;;;;;;4902453;29;20039;-92
2021/06/09 08:29:16;;;;;;;4.97;1.60;;;18.60;77.60;;;;;;4902863;29;20020;-92
2021/06/09 08:31:41;;;;;;;2.35;1.50;;;18.70;76.30;;;;;;4904329;29;20028;-90
2021/06/09 08:34:07;;;;;;;3.03;1.55;;;18.80;75.50;;;;;;4902700;29;20040;-91
2021/06/09 08:36:34;;;;;;;3.03;1.70;;;18.90;74.80;;;;;;4899261;29;20455;-90
2021/06/09 08:39:02;;;;;;;4.68;1.80;;;19.00;74.30;;;;;;4916058;29;20036;-92
2021/06/09 08:41:32;;;;;;;5.13;2.35;;;19.10;73.30;;;;;;4920693;29;20056;-93
2021/06/09 08:43:59;;;;;;;5.80;1.70;;;19.30;73.00;;;;;;4895444;29;20582;-92
2021/06/09 08:46:26;;;;;;;4.18;1.70;;;19.40;72.50;;;;;;4892934;29;20132;-92
2021/06/09 08:48:54;;;;;;;7.28;2.03;;;19.60;71.70;;;;;;4876066;29;20045;-91
2021/06/09 08:51:21;;;;;;;4.63;2.00;;;19.80;71.20;;;;;;4875474;29;20375;-92
2021/06/09 08:53:52;;;;;;;4.53;2.03;;;19.80;70.80;;;;;;4895381;29;20040;-92
2021/06/09 08:56:24;;;;;;;2.85;1.90;;;20.00;70.30;;;;;;4894831;29;20047;-93
2021/06/09 08:58:51;;;;;;;1.65;1.38;;;20.10;69.60;;;;;;4876934;29;20112;-92
2021/06/09 09:01:20;;;;;;;3.42;1.67;;;20.10;68.80;;;;;;4875841;29;20040;-92
2021/06/09 09:03:48;;;;;;;2.45;1.17;;;20.20;67.40;;;;;;4877413;29;20040;-92
2021/06/09 09:06:15;;;;;;;3.97;1.88;;;20.20;67.30;;;;;;4882298;29;20033;-93
2021/06/09 09:08:41;;;;;;;5.63;1.80;;;20.30;66.90;;;;;;4881017;29;20033;-93
2021/06/09 09:14:11;;;;;;;4.93;1.23;;;20.40;65.10;;;;;;4865934;29;20708;-93
2021/06/09 09:16:40;;;;;;;5.03;1.50;;;20.60;64.90;;;;;;4870184;29;20093;-94
2021/06/09 09:19:14;;;;;;;5.47;1.60;;;20.80;64.30;;;;;;4860067;29;20105;-94
2021/06/09 09:21:42;;;;;;;2.13;1.40;;;21.00;63.90;;;;;;4867883;29;20038;-92
2021/06/09 09:24:11;;;;;;;1.88;1.17;;;21.10;63.60;;;;;;4868791;29;20621;-93
2021/06/09 09:26:42;;;;;;;7.88;1.88;;;21.30;62.30;;;;;;4864203;29;20040;-92
2021/06/09 09:29:26;;;;;;;2.03;1.00;;;21.40;62.00;;;;;;4869762;29;20108;-91
2021/06/09 09:32:07;;;;;;;2.33;1.15;;;21.50;61.40;;;;;;4869333;29;20585;-90
2021/06/09 09:34:33;;;;;;;;;;;21.60;61.20;;;;;;4855744;29;20047;-90
2021/06/09 09:37:17;;;;;;;1.80;0.95;;;21.70;60.50;;;;;;4851857;29;20355;-94
2021/06/09 09:39:49;;;;;;;1.45;0.93;;;21.70;59.90;;;;;;4865576;29;20157;-94
2021/06/09 09:42:31;;;;;;;4.75;1.10;;;21.80;59.40;;;;;;4865275;29;20484;-91
2021/06/09 09:45:22;;;;;;;2.00;0.90;;;21.90;58.00;;;;;;4866120;29;20046;-93
2021/06/09 09:48:18;;;;;;;4.78;1.40;;;22.00;57.80;;;;;;4866189;29;20061;-92
2021/06/09 09:50:50;;;;;;;3.72;1.20;;;22.20;57.60;;;;;;4865152;29;20066;-92
2021/06/09 09:53:31;;;;;;;1.95;1.40;;;22.30;57.40;;;;;;4869398;29;20033;-92
2021/06/09 09:56:07;;;;;;;;;;;22.40;57.50;;;;;;4884499;29;20033;-92
2021/06/09 09:58:58;;;;;;;3.20;1.38;;;22.60;57.60;;;;;;4884212;29;20007;-94
2021/06/09 10:01:27;;;;;;;1.35;0.90;;;22.80;57.00;;;;;;4884142;29;20028;-92
2021/06/09 10:03:55;;;;;;;1.90;1.00;;;23.00;56.70;;;;;;4884219;29;20140;-92
2021/06/09 10:06:44;;;;;;;2.55;1.40;;;23.00;56.00;;;;;;4868268;29;20038;-92
2021/06/09 10:09:09;;;;;;;3.00;1.30;;;23.20;56.30;;;;;;4863055;29;20433;-92
2021/06/09 10:11:46;;;;;;;3.30;1.27;;;23.40;56.10;;;;;;4862546;29;20053;-92
2021/06/09 10:14:33;;;;;;;2.58;1.30;;;23.40;56.10;;;;;;4868242;29;20037;-93
2021/06/09 10:17:22;;;;;;;2.90;1.33;;;23.50;56.40;;;;;;4844142;29;20081;-94
2021/06/09 10:19:51;;;;;;;3.55;1.15;;;23.50;55.80;;;;;;4829094;29;20061;-93
2021/06/09 10:22:21;;;;;;;3.50;1.20;;;23.60;56.00;;;;;;4846458;29;20037;-92
2021/06/09 10:24:55;;;;;;;3.08;1.30;;;23.70;56.10;;;;;;4861061;29;20037;-90
2021/06/09 10:27:47;;;;;;;6.30;1.40;;;23.90;55.90;;;;;;4874495;29;20033;-90
2021/06/09 10:30:28;;;;;;;2.53;1.30;;;24.10;55.50;;;;;;4869875;29;20086;-91
2021/06/09 10:33:03;;;;;;;4.22;1.50;;;24.10;55.50;;;;;;4867033;29;20022;-94
2021/06/09 10:35:35;;;;;;;2.95;1.60;;;24.20;55.40;;;;;;4864721;29;20077;-91
2021/06/09 10:38:01;;;;;;;3.88;1.30;;;24.30;55.50;;;;;;4861703;29;20101;-92
2021/06/09 10:40:29;;;;;;;1.40;1.02;;;24.40;55.80;;;;;;4861975;29;20026;-92
2021/06/09 10:42:57;;;;;;;3.15;1.30;;;24.50;55.70;;;;;;4863719;29;20034;-89
2021/06/09 10:45:26;;;;;;;2.83;1.50;;;24.70;55.90;;;;;;4861239;29;20120;-92
2021/06/09 10:47:58;;;;;;;4.70;1.48;;;24.80;55.90;;;;;;4865778;29;20030;-91
2021/06/09 10:50:25;;;;;;;5.90;1.30;;;24.90;55.50;;;;;;4859011;29;20037;-90
2021/06/09 10:52:50;;;;;;;6.05;1.67;;;25.00;55.20;;;;;;4862743;29;20022;-91
2021/06/09 10:55:17;;;;;;;3.40;1.50;;;24.90;55.00;;;;;;4865199;29;20025;-92
2021/06/09 10:57:44;;;;;;;2.55;1.33;;;25.00;55.20;;;;;;4867251;29;20032;-93
2021/06/09 11:00:13;;;;;;;2.20;1.90;;;25.10;55.40;;;;;;4865360;29;20033;-91
2021/06/09 11:02:42;;;;;;;8.40;1.98;;;25.30;55.50;;;;;;4859164;29;20062;-92
2021/06/09 11:05:10;;;;;;;4.65;1.95;;;25.50;55.10;;;;;;4865108;29;20049;-92
2021/06/09 11:07:39;;;;;;;5.00;1.63;;;25.50;55.00;;;;;;4862897;29;20495;-91
2021/06/09 11:10:06;;;;;;;2.53;1.77;;;25.50;55.20;;;;;;4860901;29;20381;-92
2021/06/09 11:12:41;;;;;;;3.40;1.48;;;25.40;55.60;;;;;;4861014;29;20069;-90
2021/06/09 11:15:12;;;;;;;3.58;1.13;;;25.40;55.60;;;;;;4860520;29;20029;-91
2021/06/09 11:17:48;;;;;;;3.28;1.60;;;25.30;55.70;;;;;;4864062;29;20065;-90
2021/06/09 11:20:26;;;;;;;4.93;1.80;;;25.40;55.80;;;;;;4860321;29;20033;-90
2021/06/09 11:23:02;;;;;;;4.20;1.45;;;25.60;56.00;;;;;;4859497;29;20116;-92
2021/06/09 11:25:40;;;;;;;6.53;1.75;;;25.80;56.00;;;;;;4862193;29;20044;-91
2021/06/09 11:28:07;;;;;;;8.38;1.45;;;25.80;55.90;;;;;;4861974;29;20025;-92
2021/06/09 11:30:33;;;;;;;4.13;1.70;;;25.90;56.10;;;;;;4865339;29;20025;-90
2021/06/09 11:33:02;;;;;;;5.45;2.00;;;26.10;56.00;;;;;;4860818;29;20511;-90
2021/06/09 11:35:45;;;;;;;2.97;1.80;;;26.20;55.90;;;;;;4862294;29;20022;-93
2021/06/09 11:38:14;;;;;;;3.92;2.17;;;26.20;56.00;;;;;;4860355;29;20038;-90
2021/06/09 11:40:47;;;;;;;4.90;1.70;;;26.30;55.70;;;;;;4860073;29;20032;-91
2021/06/09 11:43:40;;;;;;;5.72;1.92;;;26.40;55.80;;;;;;4859248;29;20033;-91
2021/06/09 11:46:09;;;;;;;3.35;2.05;;;26.50;56.10;;;;;;4846805;29;20041;-91
2021/06/09 11:48:37;;;;;;;7.13;1.80;;;26.50;55.90;;;;;;4846774;29;20468;-91
2021/06/09 11:51:26;;;;;;;3.72;2.13;;;26.60;55.90;;;;;;4861988;29;20173;-92
2021/06/09 11:53:55;;;;;;;4.18;2.00;;;26.70;56.20;;;;;;4837192;29;20044;-90
2021/06/09 11:56:31;;;;;;;1.90;1.50;;;26.90;56.00;;;;;;4877872;29;20037;-91
2021/06/09 11:58:58;;;;;;;2.17;1.98;;;27.10;55.90;;;;;;4883466;29;20448;-90
2021/06/09 12:01:26;;;;;;;2.20;1.70;;;27.20;55.70;;;;;;4879299;29;20029;-91
2021/06/09 12:04:23;;;;;;;8.75;2.40;;;27.20;55.60;;;;;;4877496;29;20032;-91
2021/06/09 12:07:18;;;;;;;3.97;2.55;;;26.90;55.80;;;;;;4872564;29;20063;-92
2021/06/09 12:09:45;;;;;;;4.15;2.10;;;26.90;56.10;;;;;;4868000;29;20117;-92
2021/06/09 12:12:16;;;;;;;4.15;2.00;;;27.10;56.00;;;;;;4845793;29;147848;-91
2021/06/09 12:14:54;;;;;;;2.33;1.63;;;27.10;56.10;;;;;;4843268;29;20038;-93
2021/06/09 12:17:33;;;;;;;2.28;1.55;;;27.30;56.30;;;;;;4846108;29;20094;-92
2021/06/09 12:20:14;;;;;;;3.08;1.52;;;27.30;56.20;;;;;;4858372;29;20086;-92
2021/06/09 12:23:00;;;;;;;3.42;1.50;;;27.30;56.50;;;;;;4877941;29;20032;-92
2021/06/09 12:25:31;;;;;;;2.65;1.40;;;27.40;56.80;;;;;;4847746;29;20052;-92
2021/06/09 12:28:03;;;;;;;2.55;1.50;;;27.50;56.90;;;;;;4872769;29;20053;-93
2021/06/09 12:30:30;;;;;;;1.30;1.10;;;27.50;57.40;;;;;;4864578;29;20029;-93
2021/06/09 12:32:56;;;;;;;1.73;1.10;;;27.50;57.40;;;;;;4862905;29;20033;-92
2021/06/09 12:35:24;;;;;;;3.35;1.20;;;27.30;57.30;;;;;;4864783;29;20512;-93
2021/06/09 12:37:55;;;;;;;2.55;1.40;;;27.20;57.50;;;;;;4865346;29;20034;-94
2021/06/09 12:40:27;;;;;;;1.23;1.13;;;27.20;58.00;;;;;;4865174;29;20060;-92
2021/06/09 12:43:01;;;;;;;3.78;1.10;;;27.30;58.00;;;;;;4864983;29;20042;-92
2021/06/09 12:45:30;;;;;;;1.50;1.33;;;27.50;58.10;;;;;;4866465;29;20411;-92
2021/06/09 12:48:10;;;;;;;6.57;1.30;;;27.60;57.80;;;;;;4866717;29;20128;-92
2021/06/09 12:50:40;;;;;;;3.75;1.50;;;27.40;57.80;;;;;;4868213;29;20026;-92
2021/06/09 12:53:13;;;;;;;4.65;1.50;;;27.00;58.20;;;;;;4863745;29;20069;-92
2021/06/09 12:56:05;;;;;;;6.60;1.60;;;26.80;58.90;;;;;;4864115;29;20061;-93
2021/06/09 12:58:32;;;;;;;1.40;1.30;;;26.60;59.30;;;;;;4864636;29;20033;-93
2021/06/09 13:01:06;;;;;;;5.30;1.30;;;26.40;59.70;;;;;;4867487;29;20472;-91
2021/06/09 13:03:36;;;;;;;3.30;1.48;;;26.30;60.20;;;;;;4864951;29;20480;-90
2021/06/09 13:06:02;;;;;;;2.85;1.63;;;26.10;60.60;;;;;;4864099;29;20038;-93
2021/06/09 13:08:29;;;;;;;3.97;1.90;;;26.00;61.10;;;;;;4864693;29;20041;-92